Time;durP1;ratioP1;P1;durP2;ratioP2;P2;SDS_P1;SDS_P2;PMS_P1;PMS_P2;Temp;Humidity;BMP_temperature;BMP_pressure;BME280_temperature;BME280_humidity;BME280_pressure;Samples;Min_cycle;Max_cycle;Signal;HPM_P1;HPM_P2
2023/06/10 00:01:36;;;;;;;8.68;7.30;;;24.40;52.80;;;;;;5095723;28;20055;-75
2023/06/10 00:04:02;;;;;;;8.80;6.90;;;24.30;53.00;;;;;;5112657;28;20076;-75
2023/06/10 00:06:35;;;;;;;8.07;6.97;;;24.30;53.10;;;;;;5095845;28;20032;-75
2023/06/10 00:09:01;;;;;;;8.57;7.43;;;24.30;53.50;;;;;;5113604;28;20027;-75
2023/06/10 00:11:27;;;;;;;9.52;7.05;;;24.30;54.10;;;;;;5113546;28;20058;-75
2023/06/10 00:13:52;;;;;;;9.73;7.03;;;24.20;53.60;;;;;;5113571;28;20028;-75
2023/06/10 00:16:19;;;;;;;10.80;7.35;;;24.30;53.80;;;;;;5112548;28;20032;-75
2023/06/10 00:18:44;;;;;;;8.23;6.82;;;24.30;53.90;;;;;;5095792;28;20020;-75
2023/06/10 00:21:10;;;;;;;8.88;7.20;;;24.30;54.50;;;;;;5112520;28;20046;-75
2023/06/10 00:23:37;;;;;;;9.35;7.40;;;24.30;54.40;;;;;;5112367;28;20028;-75
2023/06/10 00:26:04;;;;;;;9.10;7.70;;;24.30;55.00;;;;;;5095854;28;20020;-75
2023/06/10 00:28:30;;;;;;;12.52;7.63;;;24.30;55.10;;;;;;5113171;28;20084;-75
2023/06/10 00:30:57;;;;;;;8.95;7.20;;;24.30;55.50;;;;;;5113409;28;20035;-75
2023/06/10 00:33:22;;;;;;;8.10;7.10;;;24.30;55.90;;;;;;5113178;28;20071;-75
2023/06/10 00:35:48;;;;;;;7.47;6.45;;;24.20;56.10;;;;;;5112397;28;20028;-75
2023/06/10 00:38:14;;;;;;;7.93;6.95;;;24.10;56.40;;;;;;5112435;28;20035;-75
2023/06/10 00:40:41;;;;;;;8.45;7.03;;;24.10;57.10;;;;;;5113304;28;20016;-75
2023/06/10 00:43:07;;;;;;;9.35;7.35;;;24.10;57.30;;;;;;5113232;28;20020;-75
2023/06/10 00:45:33;;;;;;;8.13;6.63;;;24.10;57.40;;;;;;5112298;28;20024;-75
2023/06/10 00:48:00;;;;;;;8.52;7.32;;;24.00;57.30;;;;;;5112303;28;20052;-75
2023/06/10 00:50:26;;;;;;;9.60;7.03;;;24.00;57.40;;;;;;5113130;28;20035;-75
2023/06/10 00:52:57;;;;;;;8.32;6.95;;;23.90;57.70;;;;;;5112103;28;20028;-75
2023/06/10 00:55:23;;;;;;;9.35;7.20;;;23.90;58.30;;;;;;5113304;28;20095;-75
2023/06/10 00:57:51;;;;;;;9.02;7.47;;;23.80;58.20;;;;;;5112395;28;20021;-75
2023/06/10 01:00:17;;;;;;;8.13;7.32;;;23.80;58.20;;;;;;5095590;28;20031;-75
2023/06/10 01:02:42;;;;;;;7.90;7.10;;;23.70;58.00;;;;;;5113223;28;20028;-75
2023/06/10 01:05:09;;;;;;;8.18;7.15;;;23.70;58.10;;;;;;5112095;28;20036;-75
2023/06/10 01:07:47;;;;;;;11.15;7.93;;;23.60;58.50;;;;;;5113044;28;20027;-75
2023/06/10 01:10:31;;;;;;;8.68;7.40;;;23.60;58.50;;;;;;5115779;28;20079;-75
2023/06/10 01:13:03;;;;;;;8.88;7.38;;;23.60;58.90;;;;;;5116826;28;20039;-75
2023/06/10 01:15:30;;;;;;;8.38;7.50;;;23.50;59.20;;;;;;5116707;28;20020;-75
2023/06/10 01:17:57;;;;;;;10.48;7.47;;;23.50;59.70;;;;;;5115704;28;20471;-75
2023/06/10 01:20:23;;;;;;;8.23;7.38;;;23.40;59.80;;;;;;5115587;28;20031;-75
2023/06/10 01:22:50;;;;;;;8.55;7.65;;;23.40;59.80;;;;;;5115648;28;20020;-75
2023/06/10 01:25:17;;;;;;;9.40;7.80;;;23.40;59.90;;;;;;5098748;28;20029;-75
2023/06/10 01:27:46;;;;;;;9.70;7.78;;;23.40;59.80;;;;;;5115465;28;20028;-75
2023/06/10 01:30:17;;;;;;;9.23;8.00;;;23.30;59.90;;;;;;5115132;28;20065;-75
2023/06/10 01:32:47;;;;;;;8.85;7.95;;;23.30;59.90;;;;;;5115282;28;20360;-75
2023/06/10 01:35:14;;;;;;;10.02;7.93;;;23.30;59.80;;;;;;5116234;28;20020;-75
2023/06/10 01:37:42;;;;;;;9.57;7.93;;;23.30;60.00;;;;;;5116224;28;20016;-76
2023/06/10 01:40:09;;;;;;;10.60;8.13;;;23.20;60.30;;;;;;5116172;28;20020;-76
2023/06/10 01:42:35;;;;;;;10.68;8.00;;;23.20;60.30;;;;;;5115109;28;20027;-75
2023/06/10 01:45:01;;;;;;;11.93;7.78;;;23.20;60.10;;;;;;5116085;28;20024;-75
2023/06/10 01:47:27;;;;;;;9.55;7.78;;;23.10;59.80;;;;;;5114978;28;20084;-75
2023/06/10 01:49:52;;;;;;;9.60;7.90;;;23.10;59.60;;;;;;5098108;28;20051;-75
2023/06/10 01:52:18;;;;;;;8.75;7.85;;;23.00;59.80;;;;;;5115939;28;20050;-75
2023/06/10 01:54:43;;;;;;;9.50;8.30;;;23.00;60.20;;;;;;5114855;28;20024;-75
2023/06/10 01:57:09;;;;;;;10.40;8.20;;;23.00;61.10;;;;;;5097999;28;20024;-75
2023/06/10 01:59:36;;;;;;;10.50;8.18;;;22.90;60.30;;;;;;5115794;28;20020;-75
2023/06/10 02:02:02;;;;;;;9.43;7.88;;;22.90;60.50;;;;;;5115871;28;20050;-75
2023/06/10 02:04:27;;;;;;;8.85;7.55;;;22.90;60.40;;;;;;5114639;28;20028;-75
2023/06/10 02:06:53;;;;;;;10.35;8.15;;;22.90;60.70;;;;;;5115677;28;20068;-75
2023/06/10 02:09:19;;;;;;;10.02;8.18;;;22.90;60.60;;;;;;5115609;28;20467;-75
2023/06/10 02:11:44;;;;;;;10.45;8.52;;;22.80;61.00;;;;;;5114630;28;20047;-75
2023/06/10 02:14:10;;;;;;;11.70;8.27;;;22.80;61.20;;;;;;5097512;28;20063;-75
2023/06/10 02:16:35;;;;;;;11.18;8.35;;;22.80;62.30;;;;;;5097644;28;20101;-75
2023/06/10 02:19:02;;;;;;;9.25;8.35;;;22.70;61.00;;;;;;5115403;28;20111;-75
2023/06/10 02:21:28;;;;;;;10.75;8.40;;;22.70;61.20;;;;;;5113203;28;20108;-75
2023/06/10 02:23:53;;;;;;;10.35;8.52;;;22.70;61.30;;;;;;5097418;28;20035;-75
2023/06/10 02:26:20;;;;;;;11.45;8.23;;;22.70;61.20;;;;;;5115302;28;20039;-75
2023/06/10 02:28:45;;;;;;;11.80;8.02;;;22.60;61.10;;;;;;5114118;28;20048;-75
2023/06/10 02:31:11;;;;;;;10.07;7.97;;;22.50;61.10;;;;;;5114266;28;20058;-75
2023/06/10 02:33:39;;;;;;;11.20;8.85;;;22.50;61.40;;;;;;5114065;28;20054;-74
2023/06/10 02:36:06;;;;;;;11.43;8.60;;;22.50;61.50;;;;;;5114196;28;20016;-74
2023/06/10 02:38:31;;;;;;;12.30;8.40;;;22.50;61.60;;;;;;5114191;28;20028;-74
2023/06/10 02:40:57;;;;;;;11.90;8.85;;;22.50;61.70;;;;;;5115111;28;20035;-75
2023/06/10 02:43:23;;;;;;;10.77;8.57;;;22.50;61.70;;;;;;5114062;28;20093;-75
2023/06/10 02:45:48;;;;;;;11.27;8.65;;;22.40;61.60;;;;;;5114896;28;20024;-75
2023/06/10 02:48:14;;;;;;;9.88;8.80;;;22.40;61.90;;;;;;5114861;28;20087;-74
2023/06/10 02:50:40;;;;;;;9.63;8.63;;;22.40;61.90;;;;;;5113938;28;20059;-74
2023/06/10 02:53:06;;;;;;;10.25;8.07;;;22.40;62.10;;;;;;5114699;28;20044;-74
2023/06/10 02:55:32;;;;;;;14.60;8.35;;;22.30;62.10;;;;;;5113789;28;20024;-74
2023/06/10 02:57:58;;;;;;;10.60;8.00;;;22.30;61.90;;;;;;5113765;28;20028;-74
2023/06/10 03:00:23;;;;;;;10.18;8.45;;;22.20;62.10;;;;;;5113632;28;20035;-75
2023/06/10 03:02:49;;;;;;;12.50;8.32;;;22.30;62.10;;;;;;5096653;28;20122;-74
2023/06/10 03:05:14;;;;;;;10.57;8.80;;;22.30;62.20;;;;;;5113629;28;20028;-75
2023/06/10 03:07:40;;;;;;;10.27;8.18;;;22.20;62.50;;;;;;5114481;28;20028;-75
2023/06/10 03:10:07;;;;;;;11.77;8.00;;;22.20;62.60;;;;;;5114455;28;20028;-75
2023/06/10 03:12:33;;;;;;;11.95;8.40;;;22.20;62.90;;;;;;5114371;28;20027;-75
2023/06/10 03:14:58;;;;;;;10.68;8.18;;;22.20;63.00;;;;;;5113578;28;20035;-75
2023/06/10 03:17:24;;;;;;;9.50;8.50;;;22.20;63.20;;;;;;5114308;28;20032;-75
2023/06/10 03:19:50;;;;;;;10.90;8.60;;;22.20;63.20;;;;;;5113345;28;20020;-75
2023/06/10 03:22:16;;;;;;;10.23;8.23;;;22.20;63.40;;;;;;5113347;28;20483;-75
2023/06/10 03:24:43;;;;;;;11.52;7.93;;;22.10;63.40;;;;;;5114162;28;20024;-75
2023/06/10 03:27:10;;;;;;;10.23;7.75;;;22.10;63.20;;;;;;5113174;28;20024;-75
2023/06/10 03:29:37;;;;;;;9.25;7.65;;;22.10;63.20;;;;;;5113893;28;20074;-75
2023/06/10 03:32:03;;;;;;;10.85;8.13;;;22.10;62.90;;;;;;5113706;28;20024;-75
2023/06/10 03:34:29;;;;;;;11.98;8.02;;;22.00;62.70;;;;;;5113903;28;20101;-75
2023/06/10 03:36:56;;;;;;;10.30;7.68;;;22.00;62.80;;;;;;5113987;28;20083;-75
2023/06/10 03:39:23;;;;;;;12.63;8.00;;;22.00;62.90;;;;;;5113943;28;20588;-75
2023/06/10 03:41:49;;;;;;;11.82;8.35;;;21.90;63.00;;;;;;5112923;28;20083;-75
2023/06/10 03:44:15;;;;;;;10.35;7.88;;;21.90;62.90;;;;;;5113843;28;20028;-74
2023/06/10 03:46:40;;;;;;;10.48;7.95;;;21.90;63.20;;;;;;5113019;28;20028;-75
2023/06/10 03:49:06;;;;;;;10.40;7.53;;;21.80;63.00;;;;;;5112749;28;20506;-75
2023/06/10 03:51:32;;;;;;;11.93;7.63;;;21.90;63.10;;;;;;5113744;28;20028;-75
2023/06/10 03:53:57;;;;;;;11.18;7.65;;;21.90;63.40;;;;;;5095855;28;20046;-75
2023/06/10 03:56:23;;;;;;;11.88;7.80;;;21.90;63.40;;;;;;5113704;28;20025;-75
2023/06/10 03:58:48;;;;;;;9.63;7.32;;;21.90;63.40;;;;;;5112730;28;20020;-75
2023/06/10 04:01:14;;;;;;;12.50;8.00;;;21.80;63.50;;;;;;5112713;28;20024;-75
2023/06/10 04:03:41;;;;;;;9.38;7.57;;;21.80;63.50;;;;;;5112622;28;20020;-75
2023/06/10 04:06:07;;;;;;;17.40;8.38;;;21.80;63.70;;;;;;5113629;28;20029;-75
2023/06/10 04:08:33;;;;;;;11.35;8.10;;;21.70;64.90;;;;;;5113565;28;20134;-75
2023/06/10 04:10:59;;;;;;;10.23;7.68;;;21.70;64.10;;;;;;5113528;28;20028;-75
2023/06/10 04:13:24;;;;;;;12.35;7.82;;;21.70;64.40;;;;;;5112505;28;20080;-75
2023/06/10 04:15:50;;;;;;;10.60;7.72;;;21.70;64.40;;;;;;5112615;28;20157;-75
2023/06/10 04:18:16;;;;;;;11.25;7.35;;;21.70;64.60;;;;;;5113573;28;20046;-75
2023/06/10 04:20:42;;;;;;;9.02;6.80;;;21.60;64.30;;;;;;5113440;28;20028;-75
2023/06/10 04:23:07;;;;;;;11.15;7.55;;;21.60;64.40;;;;;;5113585;28;20032;-75
2023/06/10 04:25:34;;;;;;;10.27;7.28;;;21.70;64.70;;;;;;5113407;28;20048;-75
2023/06/10 04:27:59;;;;;;;11.00;6.88;;;21.60;64.80;;;;;;5112475;28;20020;-75
2023/06/10 04:30:25;;;;;;;11.15;7.30;;;21.70;64.50;;;;;;5113175;28;20044;-75
2023/06/10 04:32:50;;;;;;;8.90;6.57;;;21.70;64.40;;;;;;5112268;28;20036;-75
2023/06/10 04:35:16;;;;;;;9.95;6.80;;;21.60;64.50;;;;;;5112329;28;20046;-75
2023/06/10 04:37:42;;;;;;;9.98;6.85;;;21.60;65.00;;;;;;5113275;28;20055;-75
2023/06/10 04:40:09;;;;;;;9.73;6.57;;;21.60;65.80;;;;;;5112408;28;20017;-75
2023/06/10 04:42:36;;;;;;;9.85;6.45;;;21.60;65.10;;;;;;5113235;28;20039;-75
2023/06/10 04:45:02;;;;;;;8.57;6.78;;;21.60;65.00;;;;;;5115871;28;20024;-75
2023/06/10 04:47:28;;;;;;;8.48;6.60;;;21.60;64.70;;;;;;5099447;28;20013;-76
2023/06/10 04:49:53;;;;;;;9.30;6.80;;;21.60;64.70;;;;;;5117207;28;20076;-75
2023/06/10 04:52:19;;;;;;;8.10;6.22;;;21.60;64.90;;;;;;5116218;28;20058;-75
2023/06/10 04:54:45;;;;;;;8.65;6.95;;;21.60;65.10;;;;;;5117043;28;20016;-75
2023/06/10 04:57:11;;;;;;;10.23;7.68;;;21.50;64.90;;;;;;5117068;28;20024;-75
2023/06/10 04:59:38;;;;;;;10.85;6.72;;;21.60;64.30;;;;;;5116079;28;20379;-75
2023/06/10 05:02:04;;;;;;;11.38;7.10;;;21.50;65.00;;;;;;5116026;28;20107;-75
2023/06/10 05:04:30;;;;;;;10.10;6.90;;;21.50;65.20;;;;;;5116808;28;20030;-76
2023/06/10 05:06:56;;;;;;;13.82;6.88;;;21.50;65.00;;;;;;5116879;28;20055;-75
2023/06/10 05:09:22;;;;;;;9.57;6.72;;;21.40;65.60;;;;;;5115941;28;20032;-75
2023/06/10 05:11:48;;;;;;;12.02;6.53;;;21.40;65.60;;;;;;5115764;28;20040;-75
2023/06/10 05:14:16;;;;;;;10.63;6.63;;;21.40;65.70;;;;;;5115699;28;20039;-75
2023/06/10 05:16:43;;;;;;;8.00;6.20;;;21.40;65.90;;;;;;5116672;28;20028;-75
2023/06/10 05:19:08;;;;;;;8.90;6.43;;;21.40;65.70;;;;;;5098917;28;20024;-75
2023/06/10 05:21:34;;;;;;;9.35;6.13;;;21.50;65.60;;;;;;5116571;28;20035;-75
2023/06/10 05:24:00;;;;;;;14.55;6.38;;;21.40;66.20;;;;;;5098619;28;20031;-75
2023/06/10 05:26:25;;;;;;;16.13;6.63;;;21.40;65.50;;;;;;5098551;28;20039;-76
2023/06/10 05:28:51;;;;;;;10.45;6.00;;;21.40;66.00;;;;;;5098510;28;20214;-75
2023/06/10 05:31:16;;;;;;;11.95;5.97;;;21.40;66.20;;;;;;5098287;28;20048;-76
2023/06/10 05:33:42;;;;;;;14.98;6.65;;;21.40;65.80;;;;;;5098351;28;20024;-76
2023/06/10 05:36:08;;;;;;;11.15;6.13;;;21.40;65.80;;;;;;5116314;28;20039;-76
2023/06/10 05:38:33;;;;;;;10.52;6.13;;;21.50;66.10;;;;;;5115354;28;20076;-76
2023/06/10 05:40:59;;;;;;;9.27;5.68;;;21.60;66.00;;;;;;5116180;28;20035;-75
2023/06/10 05:43:24;;;;;;;8.07;5.60;;;21.60;65.60;;;;;;5116164;28;20016;-75
2023/06/10 05:45:50;;;;;;;8.52;5.90;;;21.70;65.20;;;;;;5115258;28;20533;-75
2023/06/10 05:48:16;;;;;;;8.93;6.18;;;21.70;65.50;;;;;;5098275;28;20028;-76
2023/06/10 05:50:44;;;;;;;8.85;5.97;;;21.70;65.30;;;;;;5116151;28;20047;-76
2023/06/10 05:53:14;;;;;;;8.98;5.88;;;21.70;65.10;;;;;;5115907;28;20020;-76
2023/06/10 05:55:44;;;;;;;9.93;5.88;;;21.70;65.30;;;;;;5115708;28;20034;-76
2023/06/10 05:58:12;;;;;;;12.43;6.22;;;21.80;65.50;;;;;;5116030;28;20024;-75
2023/06/10 06:00:40;;;;;;;8.82;5.47;;;21.80;64.60;;;;;;5115805;28;20020;-75
2023/06/10 06:03:10;;;;;;;8.80;5.20;;;21.80;64.80;;;;;;5115723;28;20035;-75
2023/06/10 06:05:37;;;;;;;8.10;5.35;;;21.80;65.10;;;;;;5115788;28;20111;-75
2023/06/10 06:08:07;;;;;;;8.63;5.82;;;21.90;65.00;;;;;;5115667;28;20050;-76
2023/06/10 06:10:33;;;;;;;12.93;6.45;;;21.90;64.70;;;;;;5115625;28;20032;-76
2023/06/10 06:12:59;;;;;;;7.28;5.05;;;22.00;64.90;;;;;;5115491;28;20076;-76
2023/06/10 06:15:24;;;;;;;8.38;5.60;;;22.00;64.70;;;;;;5114472;28;20091;-76
2023/06/10 06:17:52;;;;;;;9.50;5.63;;;22.00;64.60;;;;;;5115632;28;20028;-75
2023/06/10 06:20:19;;;;;;;9.63;5.75;;;22.10;64.20;;;;;;5115463;28;20019;-75
2023/06/10 06:22:45;;;;;;;9.43;5.38;;;22.10;64.00;;;;;;5114544;28;20024;-75
2023/06/10 06:25:11;;;;;;;8.73;5.70;;;22.10;63.60;;;;;;5115343;28;20049;-76
2023/06/10 06:27:36;;;;;;;10.77;6.10;;;22.10;64.00;;;;;;5115287;28;20027;-76
2023/06/10 06:30:02;;;;;;;12.27;5.93;;;22.10;64.30;;;;;;5114050;28;20056;-76
2023/06/10 06:32:28;;;;;;;9.70;5.85;;;22.20;64.80;;;;;;5115182;28;20165;-76
2023/06/10 06:34:54;;;;;;;10.50;5.80;;;22.30;64.30;;;;;;5115019;28;20024;-76
2023/06/10 06:37:26;;;;;;;10.98;6.20;;;22.40;64.10;;;;;;5115090;28;20024;-75
2023/06/10 06:39:53;;;;;;;8.13;6.13;;;22.40;63.20;;;;;;5115047;28;20024;-76
2023/06/10 06:42:18;;;;;;;9.07;5.70;;;22.50;64.00;;;;;;5114973;28;20016;-76
2023/06/10 06:44:44;;;;;;;9.05;5.55;;;22.50;63.80;;;;;;5113978;28;20095;-76
2023/06/10 06:47:10;;;;;;;9.25;5.70;;;22.50;63.70;;;;;;5114913;28;20032;-76
2023/06/10 06:49:36;;;;;;;8.05;5.30;;;22.60;63.80;;;;;;5113843;28;20028;-76
2023/06/10 06:52:02;;;;;;;8.70;5.18;;;22.70;63.70;;;;;;5114806;28;20036;-76
2023/06/10 06:54:27;;;;;;;9.18;5.32;;;22.70;63.00;;;;;;5113639;28;20095;-76
2023/06/10 06:56:53;;;;;;;9.13;5.35;;;22.80;62.70;;;;;;5113828;28;20058;-76
2023/06/10 06:59:21;;;;;;;8.85;5.32;;;22.80;62.90;;;;;;5114675;28;20020;-76
2023/06/10 07:01:47;;;;;;;8.23;5.47;;;22.90;62.20;;;;;;5114617;28;20028;-76
2023/06/10 07:04:15;;;;;;;7.50;5.05;;;22.90;62.20;;;;;;5114524;28;20114;-76
2023/06/10 07:06:41;;;;;;;8.23;5.30;;;22.90;61.70;;;;;;5113878;28;20024;-76
2023/06/10 07:09:11;;;;;;;8.07;5.28;;;23.00;61.50;;;;;;5114488;28;20080;-76
2023/06/10 07:11:36;;;;;;;8.23;5.47;;;23.00;61.30;;;;;;5114548;28;20012;-74
2023/06/10 07:14:02;;;;;;;9.50;5.22;;;23.10;61.00;;;;;;5114480;28;20039;-74
2023/06/10 07:16:28;;;;;;;9.73;5.50;;;23.10;61.40;;;;;;5114464;28;20020;-74
2023/06/10 07:18:53;;;;;;;7.75;5.43;;;23.20;61.00;;;;;;5114293;28;20066;-74
2023/06/10 07:21:19;;;;;;;8.13;5.40;;;23.20;61.90;;;;;;5113347;28;20035;-74
2023/06/10 07:23:45;;;;;;;9.20;5.22;;;23.30;61.90;;;;;;5114337;28;20080;-74
2023/06/10 07:26:13;;;;;;;9.27;5.22;;;23.40;61.30;;;;;;5114222;28;20031;-74
2023/06/10 07:28:41;;;;;;;10.57;5.30;;;23.50;60.10;;;;;;5114122;28;20028;-74
2023/06/10 07:31:08;;;;;;;8.70;5.43;;;23.50;58.60;;;;;;5113942;28;20048;-74
2023/06/10 07:33:34;;;;;;;8.82;5.60;;;23.50;59.00;;;;;;5112899;28;20058;-74
2023/06/10 07:36:00;;;;;;;7.18;4.80;;;23.60;59.70;;;;;;5113170;28;20491;-75
2023/06/10 07:38:26;;;;;;;8.75;5.28;;;23.60;60.10;;;;;;5113096;28;20020;-75
2023/06/10 07:40:52;;;;;;;9.48;5.07;;;23.70;59.60;;;;;;5112945;28;20020;-75
2023/06/10 07:43:18;;;;;;;14.50;5.18;;;23.70;60.50;;;;;;5113986;28;20055;-75
2023/06/10 07:45:44;;;;;;;9.98;5.38;;;23.80;60.60;;;;;;5113991;28;20024;-75
2023/06/10 07:48:10;;;;;;;6.53;4.40;;;24.00;60.50;;;;;;5112954;28;20054;-75
2023/06/10 07:50:35;;;;;;;7.70;4.65;;;24.10;60.40;;;;;;5096046;28;20028;-75
2023/06/10 07:53:01;;;;;;;7.57;5.05;;;24.10;60.10;;;;;;5095856;28;20100;-75
2023/06/10 07:55:27;;;;;;;9.25;4.97;;;24.30;60.80;;;;;;5113871;28;20020;-75
2023/06/10 07:57:54;;;;;;;7.50;4.75;;;24.30;60.30;;;;;;5112817;28;20020;-75
2023/06/10 08:00:20;;;;;;;9.23;5.00;;;24.40;60.20;;;;;;5113638;28;20031;-75
2023/06/10 08:02:46;;;;;;;8.50;5.20;;;24.50;60.20;;;;;;5113650;28;20102;-75
2023/06/10 08:05:12;;;;;;;7.10;4.68;;;24.60;58.80;;;;;;5112758;28;20032;-75
2023/06/10 08:07:39;;;;;;;7.88;4.97;;;24.70;58.70;;;;;;5113581;28;20372;-75
2023/06/10 08:10:05;;;;;;;8.27;4.57;;;24.70;59.10;;;;;;5112661;28;20103;-75
2023/06/10 08:12:32;;;;;;;9.32;4.90;;;24.80;59.30;;;;;;5112666;28;20020;-75
2023/06/10 08:14:58;;;;;;;10.10;5.20;;;24.90;60.00;;;;;;5113456;28;20024;-75
2023/06/10 08:17:24;;;;;;;7.32;4.80;;;25.00;59.10;;;;;;5112529;28;20020;-75
2023/06/10 08:19:50;;;;;;;8.90;4.90;;;25.00;58.90;;;;;;5116679;28;20032;-75
2023/06/10 08:22:15;;;;;;;7.10;4.53;;;25.10;58.80;;;;;;5117734;28;20024;-75
2023/06/10 08:24:41;;;;;;;7.22;5.18;;;25.20;58.70;;;;;;5116696;28;20046;-75
2023/06/10 08:27:07;;;;;;;9.23;4.50;;;25.20;58.30;;;;;;5116721;28;20029;-75
2023/06/10 08:29:32;;;;;;;9.35;5.25;;;25.30;58.00;;;;;;5116303;28;20048;-75
2023/06/10 08:31:58;;;;;;;7.72;5.13;;;25.30;57.80;;;;;;5099765;28;20103;-75
2023/06/10 08:34:24;;;;;;;7.00;4.65;;;25.40;58.20;;;;;;5116318;28;20119;-75
2023/06/10 08:36:55;;;;;;;7.80;4.93;;;25.50;58.40;;;;;;5099451;28;20118;-75
2023/06/10 08:39:23;;;;;;;7.32;4.75;;;25.60;55.90;;;;;;5116418;28;20036;-75
2023/06/10 08:42:15;;;;;;;6.97;4.80;;;25.60;56.90;;;;;;5116334;28;20021;-76
2023/06/10 08:44:42;;;;;;;8.57;5.03;;;25.70;57.10;;;;;;5116362;28;20059;-75
2023/06/10 08:47:17;;;;;;;6.53;4.50;;;25.70;56.20;;;;;;5117263;28;20028;-75
2023/06/10 08:49:47;;;;;;;7.90;4.80;;;25.80;56.50;;;;;;5116267;28;20032;-76
2023/06/10 08:52:17;;;;;;;8.30;4.72;;;25.80;55.80;;;;;;5117180;28;20032;-75
2023/06/10 08:55:02;;;;;;;7.25;4.68;;;25.90;56.30;;;;;;5117058;28;20039;-75
2023/06/10 08:57:30;;;;;;;10.27;5.15;;;26.00;56.80;;;;;;5117107;28;20047;-75
2023/06/10 08:59:57;;;;;;;6.93;4.93;;;26.00;57.00;;;;;;5117017;28;20030;-75
2023/06/10 09:02:24;;;;;;;6.95;4.97;;;26.10;55.30;;;;;;5115969;28;20016;-75
2023/06/10 09:04:51;;;;;;;8.15;5.07;;;26.10;55.60;;;;;;5116909;28;20025;-76
2023/06/10 09:07:17;;;;;;;8.13;5.00;;;26.20;55.50;;;;;;5115890;28;20025;-75
2023/06/10 09:09:44;;;;;;;7.55;4.75;;;26.30;54.40;;;;;;5115983;28;20028;-76
2023/06/10 09:12:12;;;;;;;8.30;4.55;;;26.30;53.30;;;;;;5115769;28;20054;-76
2023/06/10 09:14:37;;;;;;;7.20;4.78;;;26.40;54.00;;;;;;5115685;28;20027;-76
2023/06/10 09:17:04;;;;;;;7.32;5.28;;;26.50;54.60;;;;;;5098822;28;20422;-76
2023/06/10 09:19:29;;;;;;;7.55;5.20;;;26.60;55.00;;;;;;5116640;28;20024;-75
2023/06/10 09:21:55;;;;;;;8.02;4.72;;;26.60;54.40;;;;;;5116642;28;20559;-76
2023/06/10 09:24:23;;;;;;;8.63;4.85;;;26.70;54.60;;;;;;5115511;28;20073;-76
2023/06/10 09:26:50;;;;;;;6.90;4.90;;;26.80;54.30;;;;;;5116541;28;20012;-76
2023/06/10 09:29:16;;;;;;;7.82;4.70;;;26.90;54.90;;;;;;5115053;28;20092;-76
2023/06/10 09:31:44;;;;;;;7.60;4.68;;;27.00;55.00;;;;;;5115926;28;20059;-76
2023/06/10 09:34:12;;;;;;;6.43;4.47;;;27.00;54.80;;;;;;5115196;28;20028;-75
2023/06/10 09:36:38;;;;;;;7.15;5.15;;;27.10;54.00;;;;;;5116359;28;20024;-76
2023/06/10 09:39:04;;;;;;;6.85;4.90;;;27.20;53.00;;;;;;5115381;28;20046;-76
2023/06/10 09:41:37;;;;;;;5.85;4.65;;;27.20;53.40;;;;;;5115229;28;20020;-75
2023/06/10 09:44:16;;;;;;;6.35;4.82;;;27.30;53.20;;;;;;5115216;28;20036;-77
2023/06/10 09:46:44;;;;;;;6.75;4.53;;;27.40;52.70;;;;;;5116174;28;20035;-75
2023/06/10 09:49:10;;;;;;;9.30;5.35;;;27.40;51.50;;;;;;5116065;28;20020;-75
2023/06/10 09:51:36;;;;;;;7.03;5.05;;;27.50;52.20;;;;;;5115167;28;20030;-76
2023/06/10 09:54:05;;;;;;;7.18;5.25;;;27.60;52.30;;;;;;5114996;28;20076;-76
2023/06/10 09:56:37;;;;;;;6.45;5.10;;;27.70;50.90;;;;;;5116072;28;20426;-75
2023/06/10 09:59:05;;;;;;;9.15;5.30;;;27.80;50.70;;;;;;5115885;28;20024;-75
2023/06/10 10:01:33;;;;;;;6.10;4.75;;;27.90;49.60;;;;;;5115853;28;20021;-75
2023/06/10 10:03:59;;;;;;;7.78;5.60;;;27.80;49.70;;;;;;5114791;28;20032;-75
2023/06/10 10:06:25;;;;;;;6.03;5.10;;;27.90;48.60;;;;;;5115773;28;20028;-75
2023/06/10 10:08:51;;;;;;;8.20;5.00;;;27.90;48.60;;;;;;5115779;28;20024;-75
2023/06/10 10:11:21;;;;;;;6.93;5.25;;;28.00;48.90;;;;;;5097739;28;20020;-76
2023/06/10 10:13:52;;;;;;;7.40;5.18;;;28.10;49.60;;;;;;5115534;28;20529;-75
2023/06/10 10:16:21;;;;;;;6.07;4.90;;;28.30;49.30;;;;;;5114521;28;20012;-75
2023/06/10 10:18:58;;;;;;;8.70;5.30;;;28.30;49.30;;;;;;5115452;28;20020;-75
2023/06/10 10:21:30;;;;;;;7.10;5.15;;;28.40;48.30;;;;;;5115420;28;20046;-75
2023/06/10 10:24:08;;;;;;;8.20;5.38;;;28.40;48.40;;;;;;5115374;28;20020;-75
2023/06/10 10:26:35;;;;;;;6.82;5.10;;;28.50;48.60;;;;;;5114346;28;20032;-75
2023/06/10 10:29:23;;;;;;;6.38;5.07;;;28.60;48.80;;;;;;5114200;28;20031;-76
2023/06/10 10:31:54;;;;;;;7.55;5.05;;;28.70;49.20;;;;;;5113969;28;20048;-75
2023/06/10 10:34:35;;;;;;;6.90;5.22;;;28.80;48.40;;;;;;5114071;28;20032;-75
2023/06/10 10:37:01;;;;;;;5.75;5.15;;;28.80;46.10;;;;;;5115106;28;20033;-75
2023/06/10 10:39:28;;;;;;;7.55;5.18;;;28.80;45.90;;;;;;5115061;28;20376;-75
2023/06/10 10:41:54;;;;;;;5.97;5.00;;;28.90;47.20;;;;;;5113960;28;20023;-75
2023/06/10 10:44:20;;;;;;;7.25;5.15;;;29.00;48.00;;;;;;5115032;28;20021;-75
2023/06/10 10:46:51;;;;;;;9.55;5.55;;;29.00;46.20;;;;;;5114968;28;20032;-75
2023/06/10 10:49:18;;;;;;;8.60;5.95;;;29.10;46.00;;;;;;5114950;28;20032;-75
2023/06/10 10:52:00;;;;;;;8.93;5.38;;;29.10;44.90;;;;;;5114828;28;20035;-76
2023/06/10 10:54:33;;;;;;;11.40;5.22;;;29.20;43.30;;;;;;5096832;28;20065;-75
2023/06/10 10:57:19;;;;;;;7.47;5.43;;;29.20;44.20;;;;;;5114800;28;20091;-75
2023/06/10 11:00:04;;;;;;;5.53;4.90;;;29.30;44.40;;;;;;5114752;28;20028;-76
2023/06/10 11:02:43;;;;;;;7.55;5.40;;;29.40;42.30;;;;;;5114628;28;20024;-76
2023/06/10 11:05:14;;;;;;;6.85;5.47;;;29.40;42.00;;;;;;5114670;28;20020;-76
2023/06/10 11:07:40;;;;;;;6.35;4.80;;;29.40;41.00;;;;;;5113637;28;20040;-75
2023/06/10 11:10:07;;;;;;;7.90;4.90;;;29.40;39.40;;;;;;5114472;28;20020;-75
2023/06/10 11:12:45;;;;;;;7.25;5.30;;;29.40;41.10;;;;;;5114404;28;20069;-76
2023/06/10 11:15:11;;;;;;;10.07;5.00;;;29.50;39.70;;;;;;5114452;28;20024;-75
2023/06/10 11:17:36;;;;;;;7.43;4.43;;;29.50;41.20;;;;;;5113389;28;20040;-75
2023/06/10 11:20:02;;;;;;;9.70;5.10;;;29.60;41.90;;;;;;5114374;28;20028;-75
2023/06/10 11:22:28;;;;;;;7.35;4.65;;;29.70;41.20;;;;;;5114289;28;20027;-75
2023/06/10 11:24:54;;;;;;;6.07;4.57;;;29.70;41.60;;;;;;5113351;28;20024;-76
2023/06/10 11:27:20;;;;;;;7.18;4.70;;;29.80;40.70;;;;;;5113140;28;20032;-76
2023/06/10 11:30:03;;;;;;;7.28;5.10;;;29.90;41.40;;;;;;5114010;28;20024;-76
2023/06/10 11:32:32;;;;;;;;;;;30.00;40.40;;;;;;5113600;28;20036;-76
2023/06/10 11:34:58;;;;;;;6.05;4.70;;;30.00;39.80;;;;;;5113949;28;19983;-76
2023/06/10 11:37:24;;;;;;;6.07;4.63;;;30.00;38.40;;;;;;5096013;28;20057;-76
2023/06/10 11:39:54;;;;;;;6.97;5.10;;;30.00;38.90;;;;;;5114040;28;20043;-75
2023/06/10 11:42:20;;;;;;;5.95;4.68;;;30.00;40.50;;;;;;5113966;28;20020;-75
2023/06/10 11:44:53;;;;;;;8.65;5.00;;;30.00;40.10;;;;;;5096098;28;20024;-76
2023/06/10 11:47:20;;;;;;;7.55;5.18;;;30.10;39.50;;;;;;5112983;28;20028;-75
2023/06/10 11:49:55;;;;;;;7.55;5.28;;;30.20;39.20;;;;;;5112905;28;20103;-76
2023/06/10 11:52:27;;;;;;;6.63;4.93;;;30.30;38.50;;;;;;5113872;28;20028;-76
2023/06/10 11:54:55;;;;;;;8.10;5.40;;;30.30;38.40;;;;;;5113791;28;20028;-76
2023/06/10 11:57:20;;;;;;;6.20;5.13;;;30.40;39.00;;;;;;5112896;28;20024;-76
2023/06/10 11:59:46;;;;;;;7.25;5.20;;;30.50;38.10;;;;;;5113728;28;20044;-75
2023/06/10 12:02:16;;;;;;;5.97;4.97;;;30.50;39.20;;;;;;5112828;28;20080;-76
2023/06/10 12:04:42;;;;;;;5.55;4.63;;;30.60;38.90;;;;;;5112642;28;20114;-76
2023/06/10 12:07:07;;;;;;;7.70;4.95;;;30.70;38.20;;;;;;5113646;28;20471;-76
2023/06/10 12:09:33;;;;;;;6.45;5.28;;;30.80;38.00;;;;;;5113684;28;20028;-75
2023/06/10 12:12:02;;;;;;;8.65;5.40;;;30.80;37.90;;;;;;5112679;28;20028;-76
2023/06/10 12:14:50;;;;;;;7.43;5.53;;;30.80;37.00;;;;;;5113500;28;20024;-76
2023/06/10 12:17:16;;;;;;;7.05;5.32;;;30.90;37.60;;;;;;5113653;28;20019;-76
2023/06/10 12:19:41;;;;;;;6.63;5.60;;;30.90;38.10;;;;;;5112559;28;20024;-76
2023/06/10 12:22:07;;;;;;;7.85;5.68;;;31.00;37.50;;;;;;5112415;28;20059;-75
2023/06/10 12:24:33;;;;;;;6.78;5.38;;;31.10;37.10;;;;;;5113437;28;20048;-76
2023/06/10 12:26:58;;;;;;;7.07;5.30;;;31.10;37.10;;;;;;5113426;28;20032;-75
2023/06/10 12:29:24;;;;;;;7.15;5.65;;;31.20;36.30;;;;;;5112381;28;20032;-75
2023/06/10 12:32:04;;;;;;;6.95;5.70;;;31.30;34.70;;;;;;5113247;28;20063;-75
2023/06/10 12:34:30;;;;;;;6.10;4.80;;;31.30;35.00;;;;;;5113268;28;20017;-76
2023/06/10 12:36:56;;;;;;;6.38;5.60;;;31.20;34.90;;;;;;5113302;28;20417;-76
2023/06/10 12:39:22;;;;;;;6.20;5.38;;;31.30;36.30;;;;;;5112390;28;20021;-76
2023/06/10 12:41:49;;;;;;;6.47;5.22;;;31.30;35.70;;;;;;5112394;28;20418;-76
2023/06/10 12:44:15;;;;;;;7.00;5.28;;;31.40;35.20;;;;;;5112287;28;20024;-75